createdAt,value
2018-08-19T00:00:53.337Z,8.90
2018-08-19T00:03:22.646Z,8.73
2018-08-19T00:05:52.051Z,9.00
2018-08-19T00:08:21.140Z,8.93
2018-08-19T00:11:07.532Z,7.97
2018-08-19T00:13:39.846Z,9.80
2018-08-19T00:16:10.021Z,8.37
2018-08-19T00:18:39.041Z,9.30
2018-08-19T00:21:10.832Z,9.33
2018-08-19T00:23:45.083Z,9.97
2018-08-19T00:26:15.458Z,8.40
2018-08-19T00:28:45.784Z,9.10
2018-08-19T00:31:19.515Z,8.77
2018-08-19T00:33:48.435Z,9.97
2018-08-19T00:36:27.047Z,9.60
2018-08-19T00:38:56.738Z,10.20
2018-08-19T00:41:25.731Z,9.07
2018-08-19T00:43:54.815Z,10.27
2018-08-19T00:46:28.509Z,9.90
2018-08-19T00:48:58.060Z,9.43
2018-08-19T00:51:27.130Z,10.37
2018-08-19T00:53:56.142Z,10.30
2018-08-19T00:56:26.144Z,8.67
2018-08-19T00:58:55.154Z,9.43
2018-08-19T01:01:33.840Z,9.50
2018-08-19T01:04:03.631Z,9.17
2018-08-19T01:06:38.929Z,10.10
2018-08-19T01:09:09.911Z,8.90
2018-08-19T01:11:41.324Z,10.53
2018-08-19T01:14:14.623Z,8.17
2018-08-19T01:16:43.896Z,9.77
2018-08-19T01:19:12.836Z,9.03
2018-08-19T01:21:43.872Z,10.80
2018-08-19T01:24:13.128Z,11.27
2018-08-19T01:26:42.819Z,9.77
2018-08-19T01:29:12.256Z,11.10
2018-08-19T01:31:41.500Z,10.67
2018-08-19T01:34:12.874Z,11.23
2018-08-19T01:36:43.604Z,9.10
2018-08-19T01:39:13.612Z,10.07
2018-08-19T01:41:43.622Z,9.63
2018-08-19T01:44:14.899Z,9.97
2018-08-19T01:46:48.135Z,10.27
2018-08-19T01:49:17.203Z,8.33
2018-08-19T01:51:46.460Z,9.90
2018-08-19T01:54:22.580Z,9.50
2018-08-19T01:56:55.431Z,10.20
2018-08-19T01:59:28.060Z,11.13
2018-08-19T02:02:00.403Z,9.43
2018-08-19T02:04:31.405Z,9.53
2018-08-19T02:07:00.695Z,10.83
2018-08-19T02:09:29.776Z,10.17
2018-08-19T02:12:00.022Z,9.63
2018-08-19T02:14:28.890Z,10.63
2018-08-19T02:16:58.221Z,10.40
2018-08-19T02:19:27.297Z,10.77
2018-08-19T02:21:56.337Z,10.43
2018-08-19T02:24:25.382Z,10.57
2018-08-19T02:26:55.911Z,10.23
2018-08-19T02:29:34.376Z,10.67
2018-08-19T02:32:05.599Z,10.80
2018-08-19T02:34:36.916Z,10.83
2018-08-19T02:37:07.226Z,12.27
2018-08-19T02:39:38.628Z,11.33
2018-08-19T02:42:22.493Z,10.73
2018-08-19T02:44:53.576Z,10.60
2018-08-19T02:47:22.775Z,12.07
2018-08-19T02:49:52.246Z,11.20
2018-08-19T02:52:26.593Z,10.70
2018-08-19T02:54:56.885Z,10.30
2018-08-19T02:57:26.925Z,10.13
2018-08-19T02:59:56.196Z,10.10
2018-08-19T03:02:26.672Z,9.17
2018-08-19T03:04:56.693Z,9.67
2018-08-19T03:07:26.934Z,9.90
2018-08-19T03:10:00.300Z,9.60
2018-08-19T03:12:29.422Z,10.07
2018-08-19T03:15:02.812Z,9.03
2018-08-19T03:17:32.814Z,10.63
2018-08-19T03:20:03.279Z,9.27
2018-08-19T03:22:33.082Z,9.20
2018-08-19T03:25:03.028Z,8.57
2018-08-19T03:27:33.947Z,10.40
2018-08-19T03:30:04.580Z,10.93
2018-08-19T03:32:33.710Z,10.60
2018-08-19T03:35:20.087Z,10.57
2018-08-19T03:37:52.159Z,8.57
2018-08-19T03:40:21.540Z,10.13
2018-08-19T03:42:50.635Z,9.83
2018-08-19T03:45:20.706Z,9.73
2018-08-19T03:47:51.060Z,10.33
2018-08-19T03:50:23.354Z,11.70
2018-08-19T03:52:53.220Z,10.10
2018-08-19T03:55:28.374Z,11.40
2018-08-19T03:58:01.989Z,11.40
2018-08-19T04:00:48.400Z,9.60
2018-08-19T04:03:22.975Z,10.70
2018-08-19T04:05:54.041Z,8.97
2018-08-19T04:08:26.744Z,7.90
2018-08-19T04:10:55.735Z,8.83
2018-08-19T04:13:32.470Z,9.07
2018-08-19T04:16:03.457Z,9.13
2018-08-19T04:18:34.941Z,8.17
2018-08-19T04:21:05.228Z,8.87
2018-08-19T04:23:35.406Z,8.93
2018-08-19T04:26:05.580Z,9.17
2018-08-19T04:28:38.100Z,9.57
2018-08-19T04:31:15.110Z,9.70
2018-08-19T04:33:45.939Z,9.73
2018-08-19T04:36:16.854Z,8.70
2018-08-19T04:38:45.952Z,9.80
2018-08-19T04:41:15.289Z,10.67
2018-08-19T04:43:45.008Z,9.93
2018-08-19T04:48:58.448Z,10.50
2018-08-19T04:51:27.515Z,10.00
2018-08-19T04:53:56.610Z,10.13
2018-08-19T04:56:26.049Z,10.30
2018-08-19T04:58:55.700Z,9.83
2018-08-19T05:01:24.823Z,9.00
2018-08-19T05:03:54.265Z,10.07
2018-08-19T05:06:23.524Z,9.53
2018-08-19T05:08:52.644Z,10.27
2018-08-19T05:11:23.203Z,9.33
2018-08-19T05:13:52.323Z,10.33
2018-08-19T05:16:21.335Z,8.53
2018-08-19T05:18:55.761Z,9.97
2018-08-19T05:21:26.978Z,9.90
2018-08-19T05:23:56.105Z,9.27
2018-08-19T05:26:25.214Z,8.67
2018-08-19T05:29:06.060Z,8.27
2018-08-19T05:31:40.376Z,7.20
2018-08-19T05:34:17.154Z,6.73
2018-08-19T05:36:49.230Z,7.13
2018-08-19T05:39:18.685Z,8.00
2018-08-19T05:42:01.681Z,7.67
2018-08-19T05:44:34.142Z,7.87
2018-08-19T05:47:10.063Z,8.13
2018-08-19T05:49:41.476Z,7.67
2018-08-19T05:52:15.968Z,9.63
2018-08-19T05:54:52.800Z,8.13
2018-08-19T05:57:22.564Z,7.93
2018-08-19T05:59:52.950Z,8.47
2018-08-19T06:02:31.888Z,7.63
2018-08-19T06:05:02.405Z,7.60
2018-08-19T06:07:31.716Z,7.53
2018-08-19T06:10:01.096Z,8.60
2018-08-19T06:12:30.510Z,7.03
2018-08-19T06:15:02.456Z,8.40
2018-08-19T06:17:31.636Z,7.10
2018-08-19T06:20:02.827Z,7.57
2018-08-19T06:22:39.359Z,7.83
2018-08-19T06:25:08.655Z,7.37
2018-08-19T06:27:43.100Z,6.90
2018-08-19T06:30:12.604Z,5.73
2018-08-19T06:32:42.779Z,6.77
2018-08-19T06:35:11.914Z,7.17
2018-08-19T06:37:41.073Z,6.40
2018-08-19T06:40:12.221Z,6.23
2018-08-19T06:42:41.362Z,5.37
2018-08-19T06:45:11.522Z,6.50
2018-08-19T06:47:40.725Z,6.70
2018-08-19T06:50:24.562Z,6.47
2018-08-19T06:52:54.358Z,6.77
2018-08-19T06:55:24.355Z,6.37
2018-08-19T06:57:54.247Z,6.53
2018-08-19T07:00:25.886Z,6.40
2018-08-19T07:02:56.071Z,7.33
2018-08-19T07:05:25.231Z,6.67
2018-08-19T07:07:55.816Z,6.07
2018-08-19T07:10:31.683Z,6.20
2018-08-19T07:13:07.555Z,5.63
2018-08-19T07:15:38.825Z,5.97
2018-08-19T07:18:09.570Z,4.87
2018-08-19T07:20:39.730Z,4.73
2018-08-19T07:23:10.308Z,5.00
2018-08-19T07:25:41.183Z,4.63
2018-08-19T07:28:11.255Z,4.83
2018-08-19T07:30:40.827Z,6.00
2018-08-19T07:33:10.101Z,5.33
2018-08-19T07:35:39.306Z,5.03
2018-08-19T07:38:08.646Z,5.20
2018-08-19T07:40:38.857Z,4.53
2018-08-19T07:43:08.933Z,5.40
2018-08-19T07:45:38.026Z,5.27
2018-08-19T07:48:07.653Z,5.50
2018-08-19T07:50:36.976Z,6.17
2018-08-19T07:53:06.431Z,5.43
2018-08-19T07:55:35.576Z,6.70
2018-08-19T07:58:06.650Z,5.53
2018-08-19T08:00:39.314Z,6.47
2018-08-19T08:03:08.722Z,5.60
2018-08-19T08:05:43.116Z,5.20
2018-08-19T08:08:12.228Z,5.57
2018-08-19T08:10:41.440Z,6.27
2018-08-19T08:13:13.614Z,5.50
2018-08-19T08:15:52.179Z,5.80
2018-08-19T08:18:22.095Z,5.80
2018-08-19T08:20:55.365Z,5.73
2018-08-19T08:23:27.324Z,5.53
2018-08-19T08:25:57.118Z,4.90
2018-08-19T08:28:27.806Z,5.20
2018-08-19T08:30:57.074Z,4.80
2018-08-19T08:33:27.148Z,5.20
2018-08-19T08:35:57.266Z,4.63
2018-08-19T08:38:27.473Z,5.10
2018-08-19T08:40:59.423Z,5.30
2018-08-19T08:43:28.648Z,5.70
2018-08-19T08:45:58.459Z,5.63
2018-08-19T08:48:29.548Z,5.50
2018-08-19T08:50:58.735Z,6.00
2018-08-19T08:53:32.133Z,5.80
2018-08-19T08:56:01.255Z,6.57
2018-08-19T08:58:30.465Z,7.70
2018-08-19T09:00:59.707Z,7.10
2018-08-19T09:03:29.038Z,6.60
2018-08-19T09:05:59.394Z,6.43
2018-08-19T09:08:29.131Z,7.17
2018-08-19T09:11:00.019Z,5.97
2018-08-19T09:13:29.244Z,6.77
2018-08-19T09:16:00.869Z,7.10
2018-08-19T09:18:30.790Z,6.50
2018-08-19T09:21:00.044Z,6.60
2018-08-19T09:23:29.386Z,6.83
2018-08-19T09:26:03.364Z,6.70
2018-08-19T09:28:35.285Z,6.37
2018-08-19T09:31:07.291Z,6.73
2018-08-19T09:33:38.845Z,6.67
2018-08-19T09:36:12.485Z,7.20
2018-08-19T09:38:41.738Z,6.53
2018-08-19T09:41:11.798Z,6.53
2018-08-19T09:43:42.610Z,7.47
2018-08-19T09:46:11.947Z,7.13
2018-08-19T09:48:41.130Z,8.20
2018-08-19T09:51:16.108Z,6.37
2018-08-19T09:53:45.244Z,6.80
2018-08-19T09:56:17.855Z,7.40
2018-08-19T09:58:51.240Z,6.57
2018-08-19T10:01:28.881Z,6.57
2018-08-19T10:03:58.357Z,6.90
2018-08-19T10:06:28.554Z,6.83
2018-08-19T10:08:59.708Z,7.30
2018-08-19T10:11:30.054Z,7.23
2018-08-19T10:14:03.805Z,6.70
2018-08-19T10:16:48.189Z,6.77
2018-08-19T10:19:19.190Z,6.67
2018-08-19T10:21:50.510Z,6.20
2018-08-19T10:24:28.812Z,6.27
2018-08-19T10:26:58.424Z,6.17
2018-08-19T10:29:28.265Z,6.13
2018-08-19T10:32:01.648Z,6.37
2018-08-19T10:34:38.287Z,9.33
2018-08-19T10:37:15.963Z,6.50
2018-08-19T10:39:45.164Z,6.80
2018-08-19T10:42:23.714Z,7.07
2018-08-19T10:44:54.509Z,6.30
2018-08-19T10:47:25.173Z,6.40
2018-08-19T10:50:05.608Z,6.50
2018-08-19T10:52:40.374Z,7.53
2018-08-19T10:55:11.207Z,8.03
2018-08-19T10:57:41.813Z,6.57
2018-08-19T11:00:16.519Z,7.00
2018-08-19T11:02:45.976Z,7.63
2018-08-19T11:05:15.257Z,7.87
2018-08-19T11:07:44.987Z,8.27
2018-08-19T11:10:32.281Z,7.40
2018-08-19T11:13:01.471Z,7.40
2018-08-19T11:15:46.731Z,7.43
2018-08-19T11:18:29.217Z,7.50
2018-08-19T11:21:08.877Z,8.03
2018-08-19T11:23:39.698Z,7.40
2018-08-19T11:26:10.497Z,7.57
2018-08-19T11:28:56.219Z,8.03
2018-08-19T11:31:31.843Z,7.47
2018-08-19T11:34:03.576Z,7.53
2018-08-19T11:36:39.784Z,7.73
2018-08-19T11:39:10.402Z,7.80
2018-08-19T11:41:43.177Z,7.67
2018-08-19T11:44:16.022Z,8.30
2018-08-19T11:46:45.232Z,8.00
2018-08-19T11:51:57.696Z,7.27
2018-08-19T11:54:27.633Z,7.63
2018-08-19T11:57:03.048Z,7.33
2018-08-19T11:59:39.906Z,7.50
2018-08-19T12:02:18.424Z,7.40
2018-08-19T12:04:49.088Z,7.53
2018-08-19T12:07:18.903Z,7.67
2018-08-19T12:09:54.572Z,7.57
2018-08-19T12:12:39.887Z,7.87
2018-08-19T12:15:09.132Z,7.83
2018-08-19T12:17:38.268Z,8.23
2018-08-19T12:20:07.733Z,7.03
2018-08-19T12:22:38.674Z,7.00
2018-08-19T12:25:07.992Z,7.33
2018-08-19T12:27:40.241Z,7.27
2018-08-19T12:30:15.293Z,7.43
2018-08-19T12:32:44.659Z,7.00
2018-08-19T12:35:13.868Z,8.10
2018-08-19T12:37:43.305Z,7.40
2018-08-19T12:40:13.562Z,7.20
2018-08-19T12:42:49.627Z,7.83
2018-08-19T12:45:19.073Z,8.00
2018-08-19T12:47:49.074Z,7.50
2018-08-19T12:50:19.518Z,7.60
2018-08-19T12:52:50.748Z,6.73
2018-08-19T12:55:21.277Z,7.27
2018-08-19T12:57:55.753Z,7.97
2018-08-19T13:00:27.268Z,6.57
2018-08-19T13:02:57.066Z,7.13
2018-08-19T13:05:27.376Z,6.93
2018-08-19T13:07:58.235Z,6.97
2018-08-19T13:10:35.498Z,7.50
2018-08-19T13:13:06.813Z,7.40
2018-08-19T13:15:37.303Z,7.70
2018-08-19T13:18:07.491Z,6.73
2018-08-19T13:20:38.684Z,7.60
2018-08-19T13:23:07.988Z,7.23
2018-08-19T13:25:38.267Z,6.60
2018-08-19T13:28:08.552Z,7.10
2018-08-19T13:30:41.648Z,6.80
2018-08-19T13:33:11.575Z,7.10
2018-08-19T13:35:40.876Z,7.70
2018-08-19T13:38:13.497Z,6.87
2018-08-19T13:40:42.748Z,6.83
2018-08-19T13:43:14.895Z,7.10
2018-08-19T13:45:48.228Z,7.03
2018-08-19T13:48:20.973Z,6.53
2018-08-19T13:50:52.907Z,7.20
2018-08-19T13:53:23.018Z,6.43
2018-08-19T13:55:52.174Z,7.10
2018-08-19T13:58:23.387Z,6.77
2018-08-19T14:00:53.565Z,7.00
2018-08-19T14:03:23.805Z,7.20
2018-08-19T14:05:53.408Z,6.97
2018-08-19T14:08:23.283Z,6.93
2018-08-19T14:10:53.239Z,6.73
2018-08-19T14:13:22.434Z,7.30
2018-08-19T14:15:52.452Z,7.53
2018-08-19T14:18:22.502Z,6.97
2018-08-19T14:20:51.801Z,5.93
2018-08-19T14:23:21.517Z,7.17
2018-08-19T14:25:51.338Z,6.67
2018-08-19T14:28:21.586Z,7.40
2018-08-19T14:30:52.477Z,6.23
2018-08-19T14:33:23.138Z,7.40
2018-08-19T14:35:52.472Z,7.13
2018-08-19T14:38:22.362Z,6.87
2018-08-19T14:40:52.420Z,7.27
2018-08-19T14:43:21.602Z,5.87
2018-08-19T14:45:53.383Z,6.77
2018-08-19T14:48:22.700Z,5.33
2018-08-19T14:50:51.901Z,7.17
2018-08-19T14:53:23.067Z,7.23
2018-08-19T14:55:58.605Z,7.33
2018-08-19T14:58:31.432Z,6.80
2018-08-19T15:01:02.089Z,6.83
2018-08-19T15:03:34.031Z,7.07
2018-08-19T15:06:07.126Z,7.10
2018-08-19T15:08:39.651Z,7.53
2018-08-19T15:11:12.038Z,7.07
2018-08-19T15:13:42.021Z,6.87
2018-08-19T15:16:14.028Z,7.37
2018-08-19T15:18:45.329Z,6.50
2018-08-19T15:21:16.407Z,8.17
2018-08-19T15:23:48.136Z,7.77
2018-08-19T15:26:21.616Z,6.90
2018-08-19T15:28:51.444Z,7.40
2018-08-19T15:31:26.815Z,7.93
2018-08-19T15:33:56.887Z,8.13
2018-08-19T15:36:28.337Z,6.70
2018-08-19T15:38:58.334Z,7.77
2018-08-19T15:41:29.523Z,7.40
2018-08-19T15:44:01.606Z,7.63
2018-08-19T15:46:31.447Z,7.47
2018-08-19T15:49:01.605Z,8.20
2018-08-19T15:51:31.491Z,7.40
2018-08-19T15:54:01.613Z,8.40
2018-08-19T15:56:31.361Z,8.47
2018-08-19T15:59:05.506Z,7.07
2018-08-19T16:01:36.721Z,7.57
2018-08-19T16:04:14.166Z,7.77
2018-08-19T16:06:45.391Z,7.37
2018-08-19T16:09:19.227Z,7.10
2018-08-19T16:11:49.678Z,6.57
2018-08-19T16:14:37.973Z,7.40
2018-08-19T16:17:07.372Z,6.25
2018-08-19T16:19:36.588Z,7.23
2018-08-19T16:22:07.391Z,6.83
2018-08-19T16:24:39.027Z,8.03
2018-08-19T16:27:10.489Z,7.60
2018-08-19T16:29:41.314Z,7.57
2018-08-19T16:32:11.285Z,6.50
2018-08-19T16:34:43.779Z,6.37
2018-08-19T16:37:13.228Z,7.47
2018-08-19T16:39:44.228Z,7.17
2018-08-19T16:42:15.251Z,7.43
2018-08-19T16:44:45.928Z,6.70
2018-08-19T16:47:17.566Z,6.83
2018-08-19T16:49:46.986Z,6.90
2018-08-19T16:52:18.567Z,6.73
2018-08-19T16:54:48.730Z,7.90
2018-08-19T16:57:18.178Z,7.90
2018-08-19T16:59:47.373Z,7.40
2018-08-19T17:02:16.587Z,7.47
2018-08-19T17:04:48.542Z,7.13
2018-08-19T17:07:20.217Z,5.80
2018-08-19T17:09:49.495Z,7.60
2018-08-19T17:12:19.418Z,7.00
2018-08-19T17:14:52.501Z,7.07
2018-08-19T17:17:23.656Z,7.60
2018-08-19T17:19:54.467Z,7.53
2018-08-19T17:22:25.206Z,7.23
2018-08-19T17:24:56.411Z,7.00
2018-08-19T17:27:28.473Z,6.70
2018-08-19T17:30:01.817Z,6.03
2018-08-19T17:32:31.952Z,7.70
2018-08-19T17:35:03.342Z,6.50
2018-08-19T17:37:34.185Z,6.93
2018-08-19T17:40:06.003Z,6.20
2018-08-19T17:42:35.988Z,7.27
2018-08-19T17:45:07.767Z,6.40
2018-08-19T17:47:48.529Z,6.40
2018-08-19T17:50:35.535Z,6.00
2018-08-19T17:53:06.436Z,6.37
2018-08-19T17:55:36.633Z,6.33
2018-08-19T17:58:07.118Z,6.43
2018-08-19T18:00:38.551Z,6.00
2018-08-19T18:03:07.710Z,6.57
2018-08-19T18:05:36.965Z,4.20
2018-08-19T18:08:06.675Z,5.60
2018-08-19T18:10:41.369Z,6.30
2018-08-19T18:13:10.911Z,6.20
2018-08-19T18:15:41.764Z,5.67
2018-08-19T18:18:12.821Z,4.90
2018-08-19T18:20:42.270Z,4.40
2018-08-19T18:23:16.590Z,6.30
2018-08-19T18:25:49.525Z,6.40
2018-08-19T18:28:26.371Z,6.97
2018-08-19T18:31:10.431Z,6.43
2018-08-19T18:33:44.344Z,5.87
2018-08-19T18:36:13.523Z,6.60
2018-08-19T18:38:42.839Z,6.60
2018-08-19T18:41:18.676Z,7.00
2018-08-19T18:43:52.663Z,6.60
2018-08-19T18:46:23.618Z,7.20
2018-08-19T18:49:03.636Z,6.60
2018-08-19T18:51:33.622Z,6.10
2018-08-19T18:54:05.840Z,5.23
2018-08-19T18:56:36.540Z,6.77
2018-08-19T18:59:06.165Z,7.43
2018-08-19T19:01:45.866Z,7.20
2018-08-19T19:04:16.255Z,6.63
2018-08-19T19:06:45.505Z,6.20
2018-08-19T19:09:15.190Z,6.43
2018-08-19T19:11:44.489Z,7.33
2018-08-19T19:14:19.836Z,6.80
2018-08-19T19:16:53.046Z,5.97
2018-08-19T19:19:22.634Z,6.70
2018-08-19T19:21:58.405Z,6.47
2018-08-19T19:24:36.389Z,6.43
2018-08-19T19:27:06.571Z,7.40
2018-08-19T19:29:38.370Z,7.17
2018-08-19T19:32:19.245Z,6.50
2018-08-19T19:34:49.309Z,6.90
2018-08-19T19:37:19.289Z,9.13
2018-08-19T19:40:02.881Z,7.27
2018-08-19T19:42:32.654Z,5.80
2018-08-19T19:45:02.581Z,6.60
2018-08-19T19:47:31.821Z,7.07
2018-08-19T19:50:01.208Z,7.17
2018-08-19T19:52:32.214Z,6.70
2018-08-19T19:55:01.446Z,6.57
2018-08-19T19:57:30.865Z,6.40
2018-08-19T20:00:00.020Z,6.23
2018-08-19T20:02:30.670Z,5.73
2018-08-19T20:05:00.358Z,6.17
2018-08-19T20:07:34.056Z,6.23
2018-08-19T20:10:03.860Z,6.60
2018-08-19T20:12:35.324Z,7.30
2018-08-19T20:15:06.062Z,7.40
2018-08-19T20:17:36.812Z,8.90
2018-08-19T20:20:07.440Z,9.33
2018-08-19T20:22:48.800Z,8.57
2018-08-19T20:25:20.021Z,9.17
2018-08-19T20:27:56.636Z,10.50
2018-08-19T20:30:29.174Z,10.10
2018-08-19T20:33:01.780Z,11.20
2018-08-19T20:35:33.339Z,10.27
2018-08-19T20:38:02.510Z,10.60
2018-08-19T20:40:35.193Z,10.53
2018-08-19T20:43:11.354Z,11.43
2018-08-19T20:45:43.247Z,10.03
2018-08-19T20:48:16.641Z,10.53
2018-08-19T20:50:56.604Z,10.77
2018-08-19T20:53:27.380Z,11.40
2018-08-19T20:56:02.046Z,10.10
2018-08-19T20:58:31.234Z,9.60
2018-08-19T21:01:01.279Z,8.67
2018-08-19T21:03:31.355Z,10.53
2018-08-19T21:06:03.395Z,8.70
2018-08-19T21:08:33.364Z,9.33
2018-08-19T21:11:07.167Z,9.20
2018-08-19T21:13:37.071Z,9.23
2018-08-19T21:16:09.371Z,9.53
2018-08-19T21:18:40.613Z,10.37
2018-08-19T21:21:09.812Z,8.87
2018-08-19T21:23:38.921Z,9.27
2018-08-19T21:26:09.386Z,8.70
2018-08-19T21:28:50.716Z,9.40
2018-08-19T21:31:21.052Z,9.93
2018-08-19T21:33:52.423Z,9.63
2018-08-19T21:36:22.994Z,8.57
2018-08-19T21:38:53.921Z,9.90
2018-08-19T21:41:24.406Z,8.43
2018-08-19T21:43:54.554Z,9.80
2018-08-19T21:46:24.439Z,10.80
2018-08-19T21:48:54.060Z,9.13
2018-08-19T21:51:23.797Z,7.93
2018-08-19T21:53:53.835Z,9.57
2018-08-19T21:56:23.536Z,9.10
2018-08-19T21:58:56.358Z,9.87
2018-08-19T22:01:30.709Z,8.67
2018-08-19T22:04:02.945Z,9.10
2018-08-19T22:06:33.385Z,10.00
2018-08-19T22:09:03.728Z,9.40
2018-08-19T22:11:33.844Z,10.00
2018-08-19T22:14:04.113Z,9.47
2018-08-19T22:16:33.712Z,11.53
2018-08-19T22:19:06.710Z,9.30
2018-08-19T22:21:36.925Z,10.73
2018-08-19T22:24:14.084Z,9.87
2018-08-19T22:26:44.899Z,10.93
2018-08-19T22:29:20.245Z,10.40
2018-08-19T22:31:54.199Z,10.33
2018-08-19T22:34:24.596Z,9.70
2018-08-19T22:36:53.849Z,9.47
2018-08-19T22:39:23.289Z,10.00
2018-08-19T22:41:55.723Z,9.10
2018-08-19T22:44:26.682Z,9.37
2018-08-19T22:46:57.753Z,8.33
2018-08-19T22:49:31.319Z,9.30
2018-08-19T22:52:40.133Z,10.20
2018-08-19T22:55:09.434Z,9.70
2018-08-19T22:57:39.331Z,10.57
2018-08-19T23:00:12.228Z,10.37
2018-08-19T23:02:41.437Z,10.13
2018-08-19T23:05:12.452Z,9.37
2018-08-19T23:07:42.131Z,9.23
2018-08-19T23:10:11.840Z,9.87
2018-08-19T23:12:42.466Z,10.70
2018-08-19T23:15:25.039Z,10.73
2018-08-19T23:17:54.256Z,11.17
2018-08-19T23:20:23.399Z,9.80
2018-08-19T23:22:53.245Z,10.20
2018-08-19T23:25:23.222Z,10.20
2018-08-19T23:27:53.475Z,9.57
2018-08-19T23:30:24.409Z,11.57
2018-08-19T23:32:54.434Z,10.00
2018-08-19T23:35:24.748Z,10.70
2018-08-19T23:37:53.899Z,10.10
2018-08-19T23:40:23.680Z,10.47
2018-08-19T23:42:54.600Z,10.50
2018-08-19T23:45:24.504Z,9.80
2018-08-19T23:47:54.468Z,9.67
2018-08-19T23:50:24.447Z,9.67
2018-08-19T23:52:53.605Z,10.83
2018-08-19T23:55:22.875Z,10.27
2018-08-19T23:57:52.957Z,10.77
